Terminal Aerodrome Forecast
Issued by NWS Upton, NY

Home | Current Version | Previous Version | Text Only | Print | Product List | Glossary On
Versions: 1 2 3 4 5 6 7 8 9 10 11 12 13 14 15 16 17 18 19 20 21 22 23 24 25 26 27 28 29 30 31 32 33 34 35 36
000
FTUS41 KOKX 151441 AAB
TAFLGA
TAF AMD
KLGA 151441Z 1515/1618 VRB05KT P6SM FEW040 BKN120
     FM151700 24005KT P6SM VCSH SCT030 BKN050
     FM152000 26006KT 2SM -SN SCT015 OVC025
      TEMPO 1520/1524 1/2SM SN BKN015
     FM160200 27009KT P6SM SCT035 BKN070
     FM160400 28011KT P6SM SCT150
     FM160700 27014G20KT P6SM FEW070 FEW250
     FM161500 27017G25KT P6SM FEW250=

USA.gov is the U.S. government's official web portal to all federal, state and local government web resources and services.